SIA154 WSSS-VDPP
Flight info
| Callsign | SIA154 |
|---|---|
| Flight time | 1h 31m |
| Altitude | 40000 |
| Route | VMR6A VMR L642 ENREP M753 IPRIX/K0900F400 M753 BITOD/K0895F410 M755 KISAN NARET3A |
| Aircraft | A359/H-SDE1E2E3GHIJ1J2J3J5M1P2RWXYZ/LB1D1 |
Departure
| Time | 2026-04-17 13:04 |
|---|---|
| Airport | Singapore Changi Airport (WSSS) |
Arrival
| Time | 2026-04-17 14:35 |
|---|---|
| Airport | Phnom Penh International Airport (VDPP) |
| Time | Latitude | Longitude | Altitude | Speed | Heading |
|---|---|---|---|---|---|
| 2026-04-17 12:37 | 1.35989 | 103.99225 | 37 ft | 0 kts | 291° |
| 2026-04-17 12:52 | 1.35984 | 103.99238 | 36 ft | 2 kts | 291° |
| 2026-04-17 12:53 | 1.35978 | 103.99253 | 35 ft | 2 kts | 291° |
| 2026-04-17 12:53 | 1.35972 | 103.99268 | 36 ft | 2 kts | 306° |
| 2026-04-17 12:53 | 1.35961 | 103.99280 | 33 ft | 2 kts | 321° |
| 2026-04-17 12:53 | 1.35947 | 103.99289 | 36 ft | 2 kts | 335° |
| 2026-04-17 12:54 | 1.35932 | 103.99291 | 35 ft | 2 kts | 22° |
| 2026-04-17 12:54 | 1.35917 | 103.99283 | 34 ft | 2 kts | 26° |
| 2026-04-17 12:54 | 1.35915 | 103.99282 | 34 ft | 0 kts | 23° |
| 2026-04-17 12:56 | 1.35937 | 103.99291 | 34 ft | 9 kts | 21° |
| 2026-04-17 12:56 | 1.35995 | 103.99319 | 37 ft | 9 kts | 48° |
| 2026-04-17 12:56 | 1.35997 | 103.99382 | 37 ft | 10 kts | 106° |
| 2026-04-17 12:56 | 1.35958 | 103.99479 | 37 ft | 13 kts | 111° |
| 2026-04-17 12:57 | 1.35916 | 103.99558 | 37 ft | 12 kts | 141° |
| 2026-04-17 12:57 | 1.35834 | 103.99546 | 35 ft | 17 kts | 201° |
| 2026-04-17 12:57 | 1.35710 | 103.99498 | 37 ft | 20 kts | 198° |
| 2026-04-17 12:57 | 1.35582 | 103.99441 | 37 ft | 21 kts | 203° |
| 2026-04-17 12:58 | 1.35450 | 103.99385 | 37 ft | 21 kts | 203° |
| 2026-04-17 12:58 | 1.35305 | 103.99323 | 37 ft | 24 kts | 203° |
| 2026-04-17 12:58 | 1.35145 | 103.99256 | 37 ft | 26 kts | 203° |
| 2026-04-17 12:58 | 1.34975 | 103.99185 | 37 ft | 27 kts | 203° |
| 2026-04-17 12:59 | 1.34811 | 103.99115 | 37 ft | 26 kts | 202° |
| 2026-04-17 12:59 | 1.34642 | 103.99045 | 37 ft | 26 kts | 202° |
| 2026-04-17 12:59 | 1.34474 | 103.98974 | 37 ft | 26 kts | 202° |
| 2026-04-17 12:59 | 1.34300 | 103.98901 | 37 ft | 28 kts | 202° |
| 2026-04-17 13:00 | 1.34126 | 103.98827 | 37 ft | 25 kts | 203° |
| 2026-04-17 13:00 | 1.33963 | 103.98759 | 36 ft | 26 kts | 202° |
| 2026-04-17 13:00 | 1.33793 | 103.98688 | 37 ft | 27 kts | 202° |
| 2026-04-17 13:00 | 1.33615 | 103.98612 | 37 ft | 28 kts | 203° |
| 2026-04-17 13:01 | 1.33444 | 103.98540 | 37 ft | 27 kts | 203° |
| 2026-04-17 13:01 | 1.33272 | 103.98468 | 37 ft | 27 kts | 202° |
| 2026-04-17 13:01 | 1.33101 | 103.98396 | 37 ft | 25 kts | 202° |
| 2026-04-17 13:01 | 1.32994 | 103.98351 | 37 ft | 8 kts | 198° |
| 2026-04-17 13:02 | 1.32944 | 103.98374 | 37 ft | 8 kts | 122° |
| 2026-04-17 13:02 | 1.32917 | 103.98434 | 37 ft | 11 kts | 112° |
| 2026-04-17 13:02 | 1.32912 | 103.98505 | 37 ft | 10 kts | 53° |
| 2026-04-17 13:02 | 1.32948 | 103.98527 | 37 ft | 0 kts | 24° |
| 2026-04-17 13:03 | 1.32975 | 103.98539 | 37 ft | 23 kts | 24° |
| 2026-04-17 13:03 | 1.33367 | 103.98706 | 37 ft | 97 kts | 23° |
| 2026-04-17 13:03 | 1.34186 | 103.99054 | 37 ft | 157 kts | 22° |
| 2026-04-17 13:03 | 1.35291 | 103.99535 | 427 ft | 178 kts | 25° |
| 2026-04-17 13:04 | 1.36389 | 104.00001 | 1292 ft | 173 kts | 25° |
| 2026-04-17 13:04 | 1.37572 | 104.00495 | 1733 ft | 191 kts | 24° |
| 2026-04-17 13:04 | 1.38863 | 104.01036 | 1925 ft | 213 kts | 24° |
| 2026-04-17 13:04 | 1.40305 | 104.01642 | 2091 ft | 237 kts | 24° |
| 2026-04-17 13:05 | 1.41886 | 104.02308 | 2349 ft | 255 kts | 23° |
| 2026-04-17 13:05 | 1.43542 | 104.03006 | 2892 ft | 261 kts | 23° |
| 2026-04-17 13:05 | 1.45167 | 104.03691 | 3518 ft | 263 kts | 24° |
| 2026-04-17 13:05 | 1.46895 | 104.04420 | 4131 ft | 266 kts | 23° |
| 2026-04-17 13:06 | 1.48689 | 104.04934 | 4702 ft | 272 kts | 6° |
| 2026-04-17 13:06 | 1.50532 | 104.04699 | 5295 ft | 274 kts | 339° |
| 2026-04-17 13:06 | 1.52245 | 104.03864 | 5886 ft | 276 kts | 332° |
| 2026-04-17 13:06 | 1.53943 | 104.02926 | 6498 ft | 281 kts | 332° |
| 2026-04-17 13:07 | 1.55665 | 104.01981 | 7288 ft | 283 kts | 332° |
| 2026-04-17 13:07 | 1.57397 | 104.01038 | 8102 ft | 286 kts | 332° |
| 2026-04-17 13:07 | 1.59161 | 104.00082 | 8899 ft | 290 kts | 332° |
| 2026-04-17 13:07 | 1.60941 | 103.99118 | 9712 ft | 293 kts | 332° |
| 2026-04-17 13:08 | 1.62756 | 103.98138 | 10358 ft | 303 kts | 331° |
| 2026-04-17 13:08 | 1.64667 | 103.97105 | 10701 ft | 322 kts | 331° |
| 2026-04-17 13:08 | 1.66695 | 103.96011 | 11030 ft | 341 kts | 331° |
| 2026-04-17 13:08 | 1.68838 | 103.94854 | 11393 ft | 356 kts | 331° |
| 2026-04-17 13:09 | 1.71044 | 103.93664 | 11906 ft | 364 kts | 331° |
| 2026-04-17 13:09 | 1.73291 | 103.92455 | 12487 ft | 370 kts | 332° |
| 2026-04-17 13:09 | 1.75667 | 103.91438 | 13053 ft | 376 kts | 343° |
| 2026-04-17 13:09 | 1.78249 | 103.90998 | 13658 ft | 380 kts | 355° |
| 2026-04-17 13:10 | 1.80910 | 103.90823 | 14182 ft | 385 kts | 356° |
| 2026-04-17 13:10 | 1.83591 | 103.90667 | 14711 ft | 388 kts | 356° |
| 2026-04-17 13:10 | 1.86303 | 103.90503 | 15264 ft | 392 kts | 356° |
| 2026-04-17 13:10 | 1.89042 | 103.90334 | 15810 ft | 395 kts | 356° |
| 2026-04-17 13:11 | 1.91800 | 103.90161 | 16346 ft | 399 kts | 356° |
| 2026-04-17 13:11 | 1.94570 | 103.89986 | 16862 ft | 402 kts | 356° |
| 2026-04-17 13:11 | 1.97383 | 103.89808 | 17383 ft | 406 kts | 356° |
| 2026-04-17 13:11 | 2.00211 | 103.89628 | 17890 ft | 410 kts | 356° |
| 2026-04-17 13:12 | 2.03080 | 103.89446 | 18371 ft | 414 kts | 356° |
| 2026-04-17 13:12 | 2.08848 | 103.89079 | 19294 ft | 419 kts | 356° |
| 2026-04-17 13:12 | 2.11771 | 103.88893 | 19764 ft | 421 kts | 356° |
| 2026-04-17 13:13 | 2.14708 | 103.88705 | 20240 ft | 423 kts | 356° |
| 2026-04-17 13:13 | 2.17648 | 103.88518 | 20710 ft | 426 kts | 357° |
| 2026-04-17 13:13 | 2.20622 | 103.88329 | 21191 ft | 429 kts | 357° |
| 2026-04-17 13:13 | 2.23599 | 103.88139 | 21665 ft | 431 kts | 357° |
| 2026-04-17 13:14 | 2.26606 | 103.87947 | 22144 ft | 434 kts | 357° |
| 2026-04-17 13:14 | 2.29628 | 103.87755 | 22619 ft | 437 kts | 357° |
| 2026-04-17 13:14 | 2.32664 | 103.87562 | 23103 ft | 439 kts | 357° |
| 2026-04-17 13:14 | 2.35729 | 103.87367 | 23537 ft | 442 kts | 357° |
| 2026-04-17 13:15 | 2.38806 | 103.87295 | 23895 ft | 444 kts | 3° |
| 2026-04-17 13:15 | 2.41884 | 103.87566 | 24278 ft | 445 kts | 7° |
| 2026-04-17 13:15 | 2.44961 | 103.87976 | 24658 ft | 448 kts | 9° |
| 2026-04-17 13:15 | 2.48053 | 103.88450 | 25083 ft | 450 kts | 10° |
| 2026-04-17 13:16 | 2.51157 | 103.88946 | 25536 ft | 453 kts | 10° |
| 2026-04-17 13:16 | 2.54276 | 103.89444 | 25979 ft | 456 kts | 10° |
| 2026-04-17 13:16 | 2.57413 | 103.89935 | 26445 ft | 458 kts | 9° |
| 2026-04-17 13:16 | 2.60578 | 103.90422 | 26909 ft | 461 kts | 9° |
| 2026-04-17 13:17 | 2.63760 | 103.90904 | 27376 ft | 464 kts | 9° |
| 2026-04-17 13:17 | 2.66965 | 103.91385 | 27830 ft | 467 kts | 9° |
| 2026-04-17 13:17 | 2.70196 | 103.91869 | 28282 ft | 470 kts | 9° |
| 2026-04-17 13:17 | 2.73438 | 103.92353 | 28721 ft | 474 kts | 9° |
| 2026-04-17 13:18 | 2.76674 | 103.92837 | 29149 ft | 477 kts | 9° |
| 2026-04-17 13:18 | 2.79959 | 103.93329 | 29563 ft | 480 kts | 9° |
| 2026-04-17 13:18 | 2.83312 | 103.93831 | 29989 ft | 483 kts | 9° |
| 2026-04-17 13:18 | 2.86643 | 103.94330 | 30326 ft | 486 kts | 9° |
| 2026-04-17 13:19 | 2.90000 | 103.94833 | 30665 ft | 488 kts | 9° |
| 2026-04-17 13:19 | 2.93365 | 103.95340 | 30997 ft | 491 kts | 9° |
| 2026-04-17 13:19 | 2.96752 | 103.95854 | 31325 ft | 494 kts | 9° |
| 2026-04-17 13:19 | 3.00118 | 103.96368 | 31622 ft | 496 kts | 9° |
| 2026-04-17 13:20 | 3.03544 | 103.96890 | 31922 ft | 499 kts | 9° |
| 2026-04-17 13:20 | 3.07021 | 103.97421 | 32226 ft | 501 kts | 9° |
| 2026-04-17 13:20 | 3.10478 | 103.97948 | 32532 ft | 503 kts | 9° |
| 2026-04-17 13:20 | 3.13953 | 103.98477 | 32810 ft | 506 kts | 9° |
| 2026-04-17 13:21 | 3.17440 | 103.99009 | 33088 ft | 508 kts | 9° |
| 2026-04-17 13:21 | 3.20933 | 103.99541 | 33334 ft | 510 kts | 9° |
| 2026-04-17 13:21 | 3.24397 | 104.00068 | 33708 ft | 509 kts | 9° |
| 2026-04-17 13:21 | 3.27895 | 104.00601 | 34065 ft | 508 kts | 9° |
| 2026-04-17 13:22 | 3.31383 | 104.01132 | 34394 ft | 508 kts | 9° |
| 2026-04-17 13:22 | 3.34887 | 104.01669 | 34704 ft | 507 kts | 9° |
| 2026-04-17 13:22 | 3.38361 | 104.02195 | 35057 ft | 506 kts | 8° |
| 2026-04-17 13:22 | 3.41850 | 104.02714 | 35355 ft | 505 kts | 8° |
| 2026-04-17 13:23 | 3.45319 | 104.03228 | 35633 ft | 505 kts | 8° |
| 2026-04-17 13:23 | 3.48795 | 104.03743 | 35941 ft | 505 kts | 8° |
| 2026-04-17 13:23 | 3.52275 | 104.04260 | 36202 ft | 505 kts | 8° |
| 2026-04-17 13:23 | 3.55740 | 104.04777 | 36506 ft | 504 kts | 8° |
| 2026-04-17 13:24 | 3.58087 | 104.05127 | 36685 ft | 504 kts | 8° |
| 2026-04-17 13:24 | 3.61549 | 104.05644 | 36973 ft | 503 kts | 8° |
| 2026-04-17 13:24 | 3.65013 | 104.06163 | 37268 ft | 503 kts | 8° |
| 2026-04-17 13:24 | 3.68428 | 104.06674 | 37538 ft | 502 kts | 8° |
| 2026-04-17 13:25 | 3.71921 | 104.07197 | 37835 ft | 501 kts | 8° |
| 2026-04-17 13:25 | 3.75364 | 104.07712 | 38100 ft | 501 kts | 8° |
| 2026-04-17 13:25 | 3.78806 | 104.08227 | 38366 ft | 500 kts | 8° |
| 2026-04-17 13:25 | 3.82204 | 104.08736 | 38614 ft | 499 kts | 8° |
| 2026-04-17 13:26 | 3.85638 | 104.09249 | 38815 ft | 499 kts | 8° |
| 2026-04-17 13:26 | 3.89065 | 104.09764 | 39021 ft | 498 kts | 8° |
| 2026-04-17 13:26 | 3.92478 | 104.10278 | 39226 ft | 497 kts | 8° |
| 2026-04-17 13:26 | 3.95913 | 104.10792 | 39427 ft | 497 kts | 7° |
| 2026-04-17 13:27 | 3.99325 | 104.11302 | 39614 ft | 496 kts | 8° |
| 2026-04-17 13:27 | 4.02744 | 104.11813 | 39823 ft | 495 kts | 8° |
| 2026-04-17 13:27 | 4.09569 | 104.12834 | 39888 ft | 495 kts | 8° |
| 2026-04-17 13:28 | 4.16372 | 104.13853 | 39890 ft | 494 kts | 8° |
| 2026-04-17 13:28 | 4.23175 | 104.14873 | 39888 ft | 495 kts | 8° |
| 2026-04-17 13:29 | 4.29981 | 104.15893 | 39888 ft | 495 kts | 8° |
| 2026-04-17 13:29 | 4.36793 | 104.16914 | 39889 ft | 495 kts | 8° |
| 2026-04-17 13:30 | 4.43603 | 104.17936 | 39888 ft | 495 kts | 8° |
| 2026-04-17 13:30 | 4.50404 | 104.18956 | 39898 ft | 495 kts | 7° |
| 2026-04-17 13:31 | 4.57214 | 104.19977 | 39889 ft | 494 kts | 7° |
| 2026-04-17 13:31 | 4.64014 | 104.20998 | 39889 ft | 494 kts | 7° |
| 2026-04-17 13:32 | 4.70820 | 104.22019 | 39884 ft | 494 kts | 8° |
| 2026-04-17 13:32 | 4.77611 | 104.23039 | 39885 ft | 492 kts | 8° |
| 2026-04-17 13:33 | 4.84381 | 104.24054 | 39887 ft | 492 kts | 7° |
| 2026-04-17 13:33 | 4.91152 | 104.24288 | 39885 ft | 490 kts | 357° |
| 2026-04-17 13:34 | 4.98001 | 104.23978 | 39890 ft | 490 kts | 356° |
| 2026-04-17 13:34 | 5.04759 | 104.23597 | 39888 ft | 490 kts | 356° |
| 2026-04-17 13:35 | 5.11569 | 104.23217 | 39889 ft | 490 kts | 356° |
| 2026-04-17 13:35 | 5.18366 | 104.22851 | 39905 ft | 490 kts | 356° |
| 2026-04-17 13:36 | 5.25171 | 104.22490 | 39885 ft | 490 kts | 356° |
| 2026-04-17 13:36 | 5.31985 | 104.22128 | 39886 ft | 490 kts | 356° |
| 2026-04-17 13:37 | 5.38835 | 104.21764 | 39887 ft | 490 kts | 356° |
| 2026-04-17 13:37 | 5.45603 | 104.21404 | 39890 ft | 490 kts | 356° |
| 2026-04-17 13:38 | 5.52421 | 104.21041 | 39888 ft | 491 kts | 356° |
| 2026-04-17 13:38 | 5.59253 | 104.20678 | 39904 ft | 491 kts | 356° |
| 2026-04-17 13:39 | 5.66056 | 104.20316 | 39902 ft | 490 kts | 356° |
| 2026-04-17 13:39 | 5.72879 | 104.19953 | 39898 ft | 490 kts | 356° |
| 2026-04-17 13:40 | 5.79672 | 104.19591 | 39888 ft | 490 kts | 356° |
| 2026-04-17 13:40 | 5.86483 | 104.19228 | 39885 ft | 490 kts | 356° |
| 2026-04-17 13:41 | 5.93290 | 104.18865 | 39891 ft | 490 kts | 356° |
| 2026-04-17 13:41 | 6.00098 | 104.18503 | 39894 ft | 489 kts | 356° |
| 2026-04-17 13:42 | 6.06895 | 104.18140 | 39889 ft | 489 kts | 356° |
| 2026-04-17 13:42 | 6.13691 | 104.17778 | 39902 ft | 489 kts | 356° |
| 2026-04-17 13:43 | 6.20490 | 104.17415 | 39888 ft | 489 kts | 356° |
| 2026-04-17 13:43 | 6.27290 | 104.17053 | 39887 ft | 489 kts | 356° |
| 2026-04-17 13:44 | 6.34079 | 104.16690 | 39889 ft | 489 kts | 356° |
| 2026-04-17 13:44 | 6.40862 | 104.16328 | 39888 ft | 488 kts | 356° |
| 2026-04-17 13:45 | 6.47654 | 104.15966 | 39890 ft | 488 kts | 356° |
| 2026-04-17 13:45 | 6.54399 | 104.15605 | 39895 ft | 488 kts | 356° |
| 2026-04-17 13:46 | 6.61221 | 104.15241 | 39904 ft | 488 kts | 356° |
| 2026-04-17 13:46 | 6.67971 | 104.14881 | 39890 ft | 488 kts | 355° |
| 2026-04-17 13:47 | 6.74746 | 104.14519 | 39890 ft | 487 kts | 355° |
| 2026-04-17 13:47 | 6.81516 | 104.14157 | 39896 ft | 487 kts | 355° |
| 2026-04-17 13:48 | 6.88280 | 104.13795 | 39899 ft | 487 kts | 355° |
| 2026-04-17 13:48 | 6.95045 | 104.13433 | 39890 ft | 487 kts | 355° |
| 2026-04-17 13:49 | 7.01819 | 104.13074 | 39889 ft | 487 kts | 355° |
| 2026-04-17 13:49 | 7.08591 | 104.12726 | 39893 ft | 487 kts | 355° |
| 2026-04-17 13:50 | 7.15368 | 104.12372 | 39892 ft | 487 kts | 355° |
| 2026-04-17 13:50 | 7.22140 | 104.12019 | 39893 ft | 487 kts | 355° |
| 2026-04-17 13:51 | 7.28902 | 104.12383 | 39889 ft | 489 kts | 6° |
| 2026-04-17 13:51 | 7.35641 | 104.13441 | 39895 ft | 490 kts | 8° |
| 2026-04-17 13:52 | 7.42367 | 104.14591 | 39890 ft | 491 kts | 8° |
| 2026-04-17 13:52 | 7.49097 | 104.15736 | 39893 ft | 491 kts | 8° |
| 2026-04-17 13:53 | 7.55830 | 104.16866 | 39895 ft | 491 kts | 7° |
| 2026-04-17 13:53 | 7.62573 | 104.17991 | 39895 ft | 491 kts | 7° |
| 2026-04-17 13:54 | 7.72684 | 104.19679 | 39893 ft | 491 kts | 7° |
| 2026-04-17 13:55 | 7.82794 | 104.21368 | 39899 ft | 491 kts | 7° |
| 2026-04-17 13:56 | 7.96253 | 104.23619 | 39892 ft | 490 kts | 8° |
| 2026-04-17 13:56 | 8.02993 | 104.24747 | 39904 ft | 490 kts | 8° |
| 2026-04-17 13:57 | 8.09716 | 104.25872 | 39910 ft | 490 kts | 7° |
| 2026-04-17 13:58 | 8.19821 | 104.27564 | 39895 ft | 491 kts | 7° |
| 2026-04-17 13:58 | 8.29937 | 104.29259 | 39891 ft | 491 kts | 7° |
| 2026-04-17 13:59 | 8.40066 | 104.30956 | 39909 ft | 491 kts | 7° |
| 2026-04-17 14:00 | 8.46809 | 104.32087 | 39897 ft | 491 kts | 7° |
| 2026-04-17 14:00 | 8.53548 | 104.33217 | 39897 ft | 492 kts | 7° |
| 2026-04-17 14:01 | 8.60300 | 104.34350 | 39893 ft | 492 kts | 7° |
| 2026-04-17 14:01 | 8.67051 | 104.35484 | 39898 ft | 492 kts | 7° |
| 2026-04-17 14:02 | 8.73787 | 104.36615 | 39896 ft | 492 kts | 7° |
| 2026-04-17 14:02 | 8.80537 | 104.37749 | 39895 ft | 492 kts | 7° |
| 2026-04-17 14:03 | 8.87291 | 104.38884 | 39899 ft | 492 kts | 7° |
| 2026-04-17 14:03 | 8.94053 | 104.40020 | 39901 ft | 493 kts | 7° |
| 2026-04-17 14:04 | 9.00774 | 104.41151 | 39898 ft | 493 kts | 7° |
| 2026-04-17 14:04 | 9.07539 | 104.42289 | 39901 ft | 493 kts | 7° |
| 2026-04-17 14:05 | 9.14304 | 104.43428 | 39903 ft | 493 kts | 7° |
| 2026-04-17 14:05 | 9.21085 | 104.44569 | 39601 ft | 499 kts | 7° |
| 2026-04-17 14:05 | 9.24527 | 104.45147 | 39473 ft | 505 kts | 7° |
| 2026-04-17 14:06 | 9.28011 | 104.45733 | 39454 ft | 508 kts | 7° |
| 2026-04-17 14:06 | 9.34990 | 104.46910 | 39395 ft | 507 kts | 7° |
| 2026-04-17 14:06 | 9.38435 | 104.47493 | 38950 ft | 501 kts | 7° |
| 2026-04-17 14:07 | 9.41889 | 104.48076 | 38123 ft | 503 kts | 7° |
| 2026-04-17 14:07 | 9.45343 | 104.48658 | 37265 ft | 505 kts | 7° |
| 2026-04-17 14:07 | 9.48818 | 104.49243 | 36479 ft | 505 kts | 7° |
| 2026-04-17 14:07 | 9.52281 | 104.49826 | 35659 ft | 507 kts | 7° |
| 2026-04-17 14:08 | 9.54603 | 104.50218 | 35023 ft | 510 kts | 7° |
| 2026-04-17 14:08 | 9.59307 | 104.51010 | 34049 ft | 516 kts | 8° |
| 2026-04-17 14:08 | 9.62848 | 104.51608 | 33291 ft | 514 kts | 8° |
| 2026-04-17 14:08 | 9.65179 | 104.52002 | 32710 ft | 515 kts | 8° |
| 2026-04-17 14:09 | 9.68709 | 104.52598 | 31788 ft | 516 kts | 8° |
| 2026-04-17 14:09 | 9.72271 | 104.53200 | 30722 ft | 521 kts | 8° |
| 2026-04-17 14:09 | 9.77064 | 104.54009 | 29667 ft | 526 kts | 8° |
| 2026-04-17 14:09 | 9.79466 | 104.54415 | 29220 ft | 527 kts | 8° |
| 2026-04-17 14:10 | 9.83067 | 104.55024 | 28741 ft | 522 kts | 8° |
| 2026-04-17 14:10 | 9.86647 | 104.55630 | 28015 ft | 518 kts | 8° |
| 2026-04-17 14:10 | 9.90180 | 104.56228 | 27266 ft | 514 kts | 8° |
| 2026-04-17 14:10 | 9.93697 | 104.56824 | 26542 ft | 509 kts | 8° |
| 2026-04-17 14:11 | 9.97162 | 104.57410 | 25875 ft | 503 kts | 8° |
| 2026-04-17 14:11 | 10.00606 | 104.57993 | 25231 ft | 498 kts | 8° |
| 2026-04-17 14:11 | 10.03996 | 104.58567 | 24599 ft | 492 kts | 8° |
| 2026-04-17 14:11 | 10.07365 | 104.59139 | 23966 ft | 487 kts | 8° |
| 2026-04-17 14:12 | 10.10683 | 104.59730 | 23257 ft | 483 kts | 9° |
| 2026-04-17 14:12 | 10.13978 | 104.60325 | 22619 ft | 476 kts | 9° |
| 2026-04-17 14:12 | 10.17206 | 104.60908 | 21937 ft | 470 kts | 9° |
| 2026-04-17 14:13 | 10.23600 | 104.62057 | 20500 ft | 461 kts | 9° |
| 2026-04-17 14:13 | 10.26750 | 104.62623 | 19870 ft | 456 kts | 9° |
| 2026-04-17 14:13 | 10.29847 | 104.63179 | 19243 ft | 450 kts | 9° |
| 2026-04-17 14:13 | 10.32922 | 104.63731 | 18624 ft | 445 kts | 9° |
| 2026-04-17 14:14 | 10.35961 | 104.64277 | 17965 ft | 441 kts | 10° |
| 2026-04-17 14:14 | 10.38956 | 104.64814 | 17299 ft | 436 kts | 10° |
| 2026-04-17 14:14 | 10.41887 | 104.65341 | 16683 ft | 429 kts | 10° |
| 2026-04-17 14:14 | 10.44805 | 104.65865 | 16058 ft | 424 kts | 11° |
| 2026-04-17 14:15 | 10.47697 | 104.66385 | 15439 ft | 419 kts | 11° |
| 2026-04-17 14:15 | 10.50542 | 104.66896 | 14832 ft | 414 kts | 11° |
| 2026-04-17 14:15 | 10.53353 | 104.67402 | 14213 ft | 409 kts | 11° |
| 2026-04-17 14:15 | 10.56152 | 104.67900 | 13559 ft | 406 kts | 10° |
| 2026-04-17 14:16 | 10.58926 | 104.68362 | 12884 ft | 401 kts | 10° |
| 2026-04-17 14:16 | 10.60889 | 104.68685 | 12452 ft | 397 kts | 10° |
| 2026-04-17 14:16 | 10.63598 | 104.69133 | 11850 ft | 390 kts | 10° |
| 2026-04-17 14:16 | 10.66253 | 104.69575 | 11275 ft | 385 kts | 10° |
| 2026-04-17 14:17 | 10.68870 | 104.70013 | 10687 ft | 379 kts | 10° |
| 2026-04-17 14:17 | 10.71427 | 104.70440 | 10502 ft | 362 kts | 11° |
| 2026-04-17 14:17 | 10.73845 | 104.70845 | 10413 ft | 344 kts | 11° |
| 2026-04-17 14:17 | 10.76041 | 104.71212 | 10306 ft | 328 kts | 11° |
| 2026-04-17 14:18 | 10.78352 | 104.71600 | 10163 ft | 313 kts | 11° |
| 2026-04-17 14:18 | 10.80456 | 104.71953 | 10029 ft | 300 kts | 11° |
| 2026-04-17 14:18 | 10.82495 | 104.72297 | 9876 ft | 299 kts | 11° |
| 2026-04-17 14:18 | 10.84574 | 104.72648 | 9611 ft | 304 kts | 11° |
| 2026-04-17 14:19 | 10.86654 | 104.73000 | 9260 ft | 301 kts | 11° |
| 2026-04-17 14:19 | 10.88642 | 104.73614 | 8946 ft | 298 kts | 30° |
| 2026-04-17 14:19 | 10.90342 | 104.74791 | 8880 ft | 296 kts | 38° |
| 2026-04-17 14:19 | 10.91996 | 104.76057 | 8786 ft | 297 kts | 38° |
| 2026-04-17 14:20 | 10.93645 | 104.77316 | 8675 ft | 297 kts | 38° |
| 2026-04-17 14:20 | 10.95303 | 104.78578 | 8578 ft | 297 kts | 38° |
| 2026-04-17 14:20 | 10.96954 | 104.79833 | 8464 ft | 297 kts | 38° |
| 2026-04-17 14:20 | 10.98616 | 104.81096 | 8374 ft | 297 kts | 38° |
| 2026-04-17 14:21 | 11.00252 | 104.82338 | 8266 ft | 297 kts | 38° |
| 2026-04-17 14:21 | 11.01910 | 104.83597 | 8151 ft | 297 kts | 38° |
| 2026-04-17 14:21 | 11.03577 | 104.84864 | 8056 ft | 296 kts | 38° |
| 2026-04-17 14:21 | 11.05207 | 104.86108 | 7960 ft | 296 kts | 38° |
| 2026-04-17 14:22 | 11.06853 | 104.87361 | 7838 ft | 296 kts | 38° |
| 2026-04-17 14:22 | 11.08503 | 104.88611 | 7730 ft | 296 kts | 38° |
| 2026-04-17 14:22 | 11.10147 | 104.89858 | 7630 ft | 295 kts | 38° |
| 2026-04-17 14:22 | 11.11797 | 104.91110 | 7512 ft | 295 kts | 38° |
| 2026-04-17 14:23 | 11.13438 | 104.92356 | 7403 ft | 295 kts | 38° |
| 2026-04-17 14:23 | 11.15082 | 104.93606 | 7306 ft | 293 kts | 38° |
| 2026-04-17 14:23 | 11.16718 | 104.94849 | 7192 ft | 292 kts | 38° |
| 2026-04-17 14:23 | 11.18314 | 104.96063 | 7085 ft | 291 kts | 38° |
| 2026-04-17 14:24 | 11.19948 | 104.97305 | 6985 ft | 291 kts | 38° |
| 2026-04-17 14:24 | 11.21573 | 104.98541 | 6876 ft | 291 kts | 38° |
| 2026-04-17 14:24 | 11.23189 | 104.99770 | 6770 ft | 290 kts | 38° |
| 2026-04-17 14:24 | 11.24809 | 105.01002 | 6663 ft | 290 kts | 38° |
| 2026-04-17 14:25 | 11.26422 | 105.02230 | 6554 ft | 290 kts | 38° |
| 2026-04-17 14:25 | 11.28042 | 105.03463 | 6440 ft | 290 kts | 38° |
| 2026-04-17 14:25 | 11.29653 | 105.04689 | 6342 ft | 290 kts | 38° |
| 2026-04-17 14:25 | 11.31266 | 105.05917 | 6234 ft | 289 kts | 38° |
| 2026-04-17 14:26 | 11.32884 | 105.07141 | 6135 ft | 289 kts | 37° |
| 2026-04-17 14:26 | 11.34684 | 105.08031 | 6036 ft | 292 kts | 14° |
| 2026-04-17 14:26 | 11.36720 | 105.08047 | 5837 ft | 295 kts | 352° |
| 2026-04-17 14:26 | 11.38726 | 105.07647 | 5593 ft | 294 kts | 349° |
| 2026-04-17 14:27 | 11.40734 | 105.07224 | 5386 ft | 295 kts | 350° |
| 2026-04-17 14:27 | 11.42751 | 105.06811 | 5156 ft | 295 kts | 350° |
| 2026-04-17 14:27 | 11.44756 | 105.06408 | 4967 ft | 294 kts | 350° |
| 2026-04-17 14:27 | 11.46770 | 105.06006 | 4747 ft | 294 kts | 350° |
| 2026-04-17 14:28 | 11.48773 | 105.05608 | 4535 ft | 294 kts | 350° |
| 2026-04-17 14:28 | 11.50776 | 105.05212 | 4323 ft | 293 kts | 350° |
| 2026-04-17 14:28 | 11.52755 | 105.04822 | 4117 ft | 292 kts | 350° |
| 2026-04-17 14:28 | 11.54751 | 105.04428 | 3910 ft | 292 kts | 349° |
| 2026-04-17 14:29 | 11.56766 | 105.04030 | 3700 ft | 290 kts | 349° |
| 2026-04-17 14:29 | 11.58718 | 105.03645 | 3493 ft | 289 kts | 349° |
| 2026-04-17 14:29 | 11.60656 | 105.03140 | 3277 ft | 288 kts | 337° |
| 2026-04-17 14:29 | 11.62294 | 105.01983 | 3123 ft | 278 kts | 316° |
| 2026-04-17 14:30 | 11.63633 | 105.00656 | 2999 ft | 265 kts | 314° |
| 2026-04-17 14:30 | 11.64912 | 104.99366 | 2864 ft | 253 kts | 313° |
| 2026-04-17 14:30 | 11.65857 | 104.98007 | 2741 ft | 227 kts | 287° |
| 2026-04-17 14:30 | 11.65888 | 104.96527 | 2660 ft | 194 kts | 249° |
| 2026-04-17 14:31 | 11.65257 | 104.95447 | 2598 ft | 168 kts | 226° |
| 2026-04-17 14:31 | 11.64450 | 104.94636 | 2464 ft | 156 kts | 223° |
| 2026-04-17 14:31 | 11.63709 | 104.93897 | 2256 ft | 146 kts | 226° |
| 2026-04-17 14:31 | 11.63026 | 104.93174 | 2057 ft | 137 kts | 226° |
| 2026-04-17 14:32 | 11.62375 | 104.92490 | 1899 ft | 134 kts | 226° |
| 2026-04-17 14:32 | 11.61713 | 104.91792 | 1722 ft | 135 kts | 229° |
| 2026-04-17 14:32 | 11.61067 | 104.91110 | 1560 ft | 136 kts | 227° |
| 2026-04-17 14:32 | 11.60412 | 104.90417 | 1372 ft | 135 kts | 227° |
| 2026-04-17 14:33 | 11.59759 | 104.89731 | 1206 ft | 137 kts | 227° |
| 2026-04-17 14:33 | 11.59104 | 104.89039 | 1022 ft | 135 kts | 227° |
| 2026-04-17 14:33 | 11.58451 | 104.88343 | 860 ft | 137 kts | 226° |
| 2026-04-17 14:33 | 11.57783 | 104.87646 | 680 ft | 137 kts | 226° |
| 2026-04-17 14:34 | 11.57118 | 104.86954 | 520 ft | 136 kts | 226° |
| 2026-04-17 14:34 | 11.56458 | 104.86270 | 355 ft | 135 kts | 225° |
| 2026-04-17 14:34 | 11.55790 | 104.85582 | 158 ft | 138 kts | 226° |
| 2026-04-17 14:34 | 11.55127 | 104.84900 | 43 ft | 127 kts | 226° |
| 2026-04-17 14:35 | 11.54602 | 104.84358 | 43 ft | 88 kts | 224° |
| 2026-04-17 14:35 | 11.54273 | 104.84018 | 46 ft | 44 kts | 224° |
| 2026-04-17 14:35 | 11.54132 | 104.83871 | 43 ft | 6 kts | 237° |
| 2026-04-17 14:35 | 11.54126 | 104.83824 | 45 ft | 8 kts | 290° |
| 2026-04-17 14:36 | 11.54175 | 104.83769 | 42 ft | 12 kts | 315° |
| 2026-04-17 14:36 | 11.54253 | 104.83752 | 44 ft | 13 kts | 32° |
| 2026-04-17 14:36 | 11.54323 | 104.83819 | 45 ft | 14 kts | 44° |
| 2026-04-17 14:36 | 11.54394 | 104.83897 | 45 ft | 16 kts | 47° |
| 2026-04-17 14:37 | 11.54480 | 104.83987 | 41 ft | 19 kts | 46° |
| 2026-04-17 14:37 | 11.54581 | 104.84088 | 41 ft | 21 kts | 43° |
| 2026-04-17 14:37 | 11.54676 | 104.84186 | 43 ft | 18 kts | 46° |
| 2026-04-17 14:37 | 11.54770 | 104.84287 | 40 ft | 21 kts | 46° |
| 2026-04-17 14:38 | 11.54866 | 104.84387 | 43 ft | 20 kts | 45° |
| 2026-04-17 14:38 | 11.54966 | 104.84490 | 46 ft | 19 kts | 46° |
| 2026-04-17 14:38 | 11.55037 | 104.84565 | 43 ft | 7 kts | 43° |
| 2026-04-17 14:38 | 11.55089 | 104.84591 | 43 ft | 9 kts | 7° |
| 2026-04-17 14:39 | 11.55151 | 104.84579 | 40 ft | 6 kts | 348° |
| 2026-04-17 14:39 | 11.55199 | 104.84569 | 43 ft | 4 kts | 348° |
| 2026-04-17 14:39 | 11.55207 | 104.84568 | 46 ft | 0 kts | 348° |